createdAt,value
2022-11-06T00:01:18.964Z,94372.06
2022-11-06T00:03:45.938Z,94366.41
2022-11-06T00:06:34.175Z,94369.63
2022-11-06T00:09:02.946Z,94368.63
2022-11-06T00:11:30.410Z,94372.00
2022-11-06T00:13:57.917Z,94361.63
2022-11-06T00:16:24.561Z,94369.63
2022-11-06T00:18:51.506Z,94378.75
2022-11-06T00:21:21.758Z,94377.97
2022-11-06T00:23:48.712Z,94376.41
2022-11-06T00:26:19.740Z,94380.78
2022-11-06T00:28:46.636Z,94380.72
2022-11-06T00:31:16.797Z,94385.50
2022-11-06T00:33:43.893Z,94380.41
2022-11-06T00:36:13.203Z,94385.19
2022-11-06T00:38:40.072Z,94390.19
2022-11-06T00:41:09.908Z,94390.81
2022-11-06T00:43:36.947Z,94391.16
2022-11-06T00:46:05.592Z,94388.94
2022-11-06T00:48:32.482Z,94390.50
2022-11-06T00:51:28.947Z,94382.38
2022-11-06T00:53:57.267Z,94385.19
2022-11-06T00:56:24.608Z,94382.81
2022-11-06T00:58:52.069Z,94390.34
2022-11-06T01:01:23.119Z,94399.06
2022-11-06T01:03:57.724Z,94388.75
2022-11-06T01:06:26.908Z,94389.03
2022-11-06T01:08:54.095Z,94390.00
2022-11-06T01:11:27.215Z,94393.56
2022-11-06T01:13:56.627Z,94388.03
2022-11-06T01:16:24.415Z,94383.72
2022-11-06T01:18:52.383Z,94386.09
2022-11-06T01:21:24.528Z,94388.41
2022-11-06T01:23:56.397Z,94387.28
2022-11-06T01:26:37.257Z,94387.78
2022-11-06T01:29:06.866Z,94386.63
2022-11-06T01:31:34.854Z,94390.63
2022-11-06T01:34:02.486Z,94386.00
2022-11-06T01:36:29.767Z,94381.03
2022-11-06T01:39:02.181Z,94389.19
2022-11-06T01:41:38.040Z,94386.81
2022-11-06T01:44:33.495Z,94383.59
2022-11-06T01:47:01.567Z,94390.66
2022-11-06T01:49:31.059Z,94387.91
2022-11-06T01:52:03.603Z,94383.97
2022-11-06T01:54:31.562Z,94384.75
2022-11-06T01:57:00.197Z,94382.19
2022-11-06T01:59:28.822Z,94379.69
2022-11-06T02:01:55.741Z,94385.81
2022-11-06T02:04:38.068Z,94376.41
2022-11-06T02:07:05.447Z,94382.88
2022-11-06T02:09:33.657Z,94375.78
2022-11-06T02:12:25.116Z,94387.50
2022-11-06T02:15:10.844Z,94378.78
2022-11-06T02:18:03.665Z,94378.09
2022-11-06T02:20:40.056Z,94374.91
2022-11-06T02:23:30.918Z,94375.69
2022-11-06T02:26:25.583Z,94371.97
2022-11-06T02:29:06.086Z,94377.78
2022-11-06T02:31:34.583Z,94374.63
2022-11-06T02:34:08.624Z,94375.25
2022-11-06T02:36:38.747Z,94385.66
2022-11-06T02:39:11.095Z,94384.84
2022-11-06T02:41:41.471Z,94380.78
2022-11-06T02:44:15.873Z,94387.97
2022-11-06T02:46:52.807Z,94389.56
2022-11-06T02:49:33.309Z,94380.84
2022-11-06T02:52:05.876Z,94377.84
2022-11-06T02:54:35.027Z,94376.19
2022-11-06T02:57:08.508Z,94380.53
2022-11-06T02:59:49.693Z,94379.16
2022-11-06T03:02:21.896Z,94378.59
2022-11-06T03:05:22.997Z,94382.72
2022-11-06T03:07:59.461Z,94387.13
2022-11-06T03:10:30.636Z,94382.09
2022-11-06T03:13:02.324Z,94387.59
2022-11-06T03:15:35.126Z,94398.16
2022-11-06T03:18:28.681Z,94403.69
2022-11-06T03:21:05.886Z,94405.81
2022-11-06T03:23:36.643Z,94406.09
2022-11-06T03:26:15.533Z,94405.28
2022-11-06T03:29:08.124Z,94406.16
2022-11-06T03:31:38.517Z,94405.19
2022-11-06T03:34:07.930Z,94398.53
2022-11-06T03:36:38.092Z,94400.69
2022-11-06T03:39:28.765Z,94403.00
2022-11-06T03:42:06.896Z,94401.84
2022-11-06T03:44:36.866Z,94406.44
2022-11-06T03:47:28.429Z,94401.41
2022-11-06T03:50:01.692Z,94394.81
2022-11-06T03:52:36.215Z,94396.50
2022-11-06T03:55:13.098Z,94398.38
2022-11-06T03:57:50.334Z,94390.66
2022-11-06T04:00:20.615Z,94391.28
2022-11-06T04:02:52.666Z,94394.53
2022-11-06T04:05:24.266Z,94390.19
2022-11-06T04:08:13.444Z,94394.03
2022-11-06T04:11:02.684Z,94390.03
2022-11-06T04:13:50.455Z,94393.06
2022-11-06T04:16:17.456Z,94390.81
2022-11-06T04:18:44.118Z,94398.00
2022-11-06T04:21:43.887Z,94397.63
2022-11-06T04:24:45.456Z,94388.69
2022-11-06T04:27:15.142Z,94398.16
2022-11-06T04:30:00.534Z,94396.19
2022-11-06T04:32:40.672Z,94391.06
2022-11-06T04:35:10.128Z,94395.56
2022-11-06T04:37:44.795Z,94384.31
2022-11-06T04:40:14.627Z,94386.53
2022-11-06T04:42:54.679Z,94389.59
2022-11-06T04:45:25.888Z,94389.28
2022-11-06T04:47:53.215Z,94391.94
2022-11-06T04:50:21.120Z,94389.84
2022-11-06T04:52:48.411Z,94386.09
2022-11-06T04:55:15.217Z,94385.13
2022-11-06T04:57:41.885Z,94385.50
2022-11-06T05:00:12.857Z,94381.00
2022-11-06T05:02:39.547Z,94383.81
2022-11-06T05:05:06.906Z,94389.38
2022-11-06T05:07:33.588Z,94376.19
2022-11-06T05:10:00.212Z,94383.63
2022-11-06T05:12:26.817Z,94371.75
2022-11-06T05:14:53.540Z,94370.06
2022-11-06T05:17:20.478Z,94376.44
2022-11-06T05:19:47.094Z,94380.44
2022-11-06T05:22:32.589Z,94359.06
2022-11-06T05:24:59.166Z,94380.59
2022-11-06T05:27:25.903Z,94383.00
2022-11-06T05:29:52.455Z,94390.84
2022-11-06T05:32:19.038Z,94387.28
2022-11-06T05:34:46.874Z,94381.28
2022-11-06T05:37:13.476Z,94382.00
2022-11-06T05:39:42.083Z,94376.25
2022-11-06T05:42:08.824Z,94373.84
2022-11-06T05:44:35.570Z,94380.41
2022-11-06T05:47:02.129Z,94379.25
2022-11-06T05:49:28.740Z,94374.41
2022-11-06T05:51:55.295Z,94377.84
2022-11-06T05:54:21.909Z,94377.22
2022-11-06T05:56:48.435Z,94378.53
2022-11-06T05:59:15.226Z,94390.09
2022-11-06T06:01:41.928Z,94377.78
2022-11-06T06:04:08.632Z,94386.25
2022-11-06T06:06:35.509Z,94378.53
2022-11-06T06:09:02.084Z,94385.66
2022-11-06T06:11:28.672Z,94379.25
2022-11-06T06:13:55.402Z,94383.50
2022-11-06T06:16:22.114Z,94389.47
2022-11-06T06:18:51.017Z,94385.41
2022-11-06T06:21:17.840Z,94384.94
2022-11-06T06:23:44.690Z,94385.13
2022-11-06T06:26:11.293Z,94390.38
2022-11-06T06:28:38.014Z,94384.16
2022-11-06T06:31:06.202Z,94396.13
2022-11-06T06:33:33.468Z,94398.63
2022-11-06T06:36:04.477Z,94391.63
2022-11-06T06:38:31.389Z,94400.38
2022-11-06T06:41:05.408Z,94402.16
2022-11-06T06:43:32.083Z,94401.56
2022-11-06T06:45:59.793Z,94407.25
2022-11-06T06:48:26.571Z,94400.78
2022-11-06T06:50:56.259Z,94399.44
2022-11-06T06:53:22.822Z,94414.88
2022-11-06T06:55:49.476Z,94413.72
2022-11-06T06:58:17.997Z,94401.22
2022-11-06T07:00:45.251Z,94407.25
2022-11-06T07:03:12.150Z,94402.09
2022-11-06T07:05:39.253Z,94414.88
2022-11-06T07:08:05.966Z,94403.09
2022-11-06T07:10:32.598Z,94402.28
2022-11-06T07:13:03.161Z,94402.97
2022-11-06T07:15:29.731Z,94404.13
2022-11-06T07:17:59.520Z,94405.09
2022-11-06T07:20:26.077Z,94412.47
2022-11-06T07:22:52.643Z,94403.25
2022-11-06T07:25:19.172Z,94410.88
2022-11-06T07:27:45.816Z,94404.91
2022-11-06T07:30:12.808Z,94408.84
2022-11-06T07:32:39.480Z,94410.44
2022-11-06T07:35:06.622Z,94393.22
2022-11-06T07:37:33.629Z,94397.38
2022-11-06T07:40:01.004Z,94398.00
2022-11-06T07:42:28.445Z,94392.47
2022-11-06T07:44:55.642Z,94393.91
2022-11-06T07:47:22.775Z,94391.16
2022-11-06T07:49:51.057Z,94383.69
2022-11-06T07:52:17.946Z,94386.09
2022-11-06T07:54:44.684Z,94381.00
2022-11-06T07:57:11.224Z,94383.47
2022-11-06T07:59:37.853Z,94379.44
2022-11-06T08:02:04.628Z,94386.72
2022-11-06T08:04:31.348Z,94390.28
2022-11-06T08:06:58.269Z,94376.84
2022-11-06T08:09:25.344Z,94374.63
2022-11-06T08:11:51.957Z,94373.28
2022-11-06T08:14:18.652Z,94368.84
2022-11-06T08:16:45.372Z,94372.22
2022-11-06T08:19:12.134Z,94369.38
2022-11-06T08:21:38.916Z,94364.59
2022-11-06T08:24:06.074Z,94373.03
2022-11-06T08:26:33.009Z,94369.66
2022-11-06T08:28:59.858Z,94366.28
2022-11-06T08:31:26.619Z,94364.22
2022-11-06T08:33:53.892Z,94374.63
2022-11-06T08:36:20.676Z,94371.72
2022-11-06T08:38:48.626Z,94371.00
2022-11-06T08:41:15.472Z,94366.94
2022-11-06T08:43:42.231Z,94368.44
2022-11-06T08:46:09.995Z,94362.34
2022-11-06T08:48:37.254Z,94364.97
2022-11-06T08:51:04.934Z,94346.22
2022-11-06T08:53:31.862Z,94344.91
2022-11-06T08:55:58.668Z,94338.94
2022-11-06T08:58:25.424Z,94343.53
2022-11-06T09:00:52.258Z,94344.13
2022-11-06T09:03:18.968Z,94351.13
2022-11-06T09:05:46.285Z,94346.41
2022-11-06T09:08:13.716Z,94348.38
2022-11-06T09:10:41.922Z,94350.47
2022-11-06T09:13:09.107Z,94352.50
2022-11-06T09:15:36.608Z,94354.34
2022-11-06T09:18:03.815Z,94336.06
2022-11-06T09:20:30.672Z,94346.81
2022-11-06T09:23:04.564Z,94351.84
2022-11-06T09:25:31.540Z,94348.22
2022-11-06T09:27:59.740Z,94360.00
2022-11-06T09:30:28.839Z,94357.31
2022-11-06T09:32:57.959Z,94359.88
2022-11-06T09:35:26.126Z,94361.22
2022-11-06T09:37:53.024Z,94357.50
2022-11-06T09:40:27.407Z,94354.72
2022-11-06T09:42:56.979Z,94356.34
2022-11-06T09:45:26.247Z,94354.34
2022-11-06T09:48:00.647Z,94346.06
2022-11-06T09:50:30.926Z,94341.34
2022-11-06T09:53:07.567Z,94349.47
2022-11-06T09:55:38.446Z,94353.41
2022-11-06T09:58:26.984Z,94358.34
2022-11-06T10:00:54.874Z,94355.59
2022-11-06T10:03:30.972Z,94367.66
2022-11-06T10:05:57.670Z,94366.91
2022-11-06T10:08:27.998Z,94358.44
2022-11-06T10:11:16.631Z,94377.22
2022-11-06T10:14:00.426Z,94372.53
2022-11-06T10:16:32.373Z,94373.47
2022-11-06T10:18:58.987Z,94364.19
2022-11-06T10:21:32.527Z,94360.47
2022-11-06T10:24:00.386Z,94352.28
2022-11-06T10:26:39.630Z,94331.00
2022-11-06T10:29:43.749Z,94339.06
2022-11-06T10:32:30.729Z,94332.06
2022-11-06T10:35:08.793Z,94332.66
2022-11-06T10:38:06.806Z,94332.56
2022-11-06T10:40:35.498Z,94324.59
2022-11-06T10:43:29.280Z,94309.63
2022-11-06T10:46:33.277Z,94312.13
2022-11-06T10:49:02.967Z,94308.00
2022-11-06T10:52:07.037Z,94296.53
2022-11-06T10:54:58.328Z,94284.16
2022-11-06T10:57:30.936Z,94287.94
2022-11-06T10:59:57.648Z,94283.47
2022-11-06T11:02:24.355Z,94281.09
2022-11-06T11:04:55.336Z,94275.84
2022-11-06T11:07:24.345Z,94259.97
2022-11-06T11:09:50.964Z,94257.63
2022-11-06T11:12:29.877Z,94251.34
2022-11-06T11:15:16.458Z,94248.13
2022-11-06T11:17:43.770Z,94255.34
2022-11-06T11:20:34.341Z,94239.88
2022-11-06T11:23:13.843Z,94221.72
2022-11-06T11:25:41.714Z,94222.28
2022-11-06T11:28:22.994Z,94221.66
2022-11-06T11:31:07.840Z,94210.41
2022-11-06T11:33:35.254Z,94205.38
2022-11-06T11:36:04.870Z,94205.94
2022-11-06T11:38:31.584Z,94202.50
2022-11-06T11:41:12.395Z,94182.09
2022-11-06T11:43:39.197Z,94173.97
2022-11-06T11:46:08.783Z,94178.34
2022-11-06T11:48:53.285Z,94178.69
2022-11-06T11:51:28.947Z,94171.56
2022-11-06T11:54:13.895Z,94150.06
2022-11-06T11:57:05.567Z,94159.75
2022-11-06T11:59:38.514Z,94166.38
2022-11-06T12:02:26.397Z,94162.66
2022-11-06T12:05:00.140Z,94164.97
2022-11-06T12:07:35.870Z,94160.59
2022-11-06T12:10:20.556Z,94154.53
2022-11-06T12:12:49.746Z,94153.00
2022-11-06T12:15:22.065Z,94154.06
2022-11-06T12:17:58.354Z,94140.84
2022-11-06T12:20:29.497Z,94140.75
2022-11-06T12:22:58.381Z,94145.19
2022-11-06T12:25:34.455Z,94141.22
2022-11-06T12:28:02.048Z,94138.31
2022-11-06T12:30:30.213Z,94138.50
2022-11-06T12:33:27.384Z,94133.50
2022-11-06T12:36:11.542Z,94116.72
2022-11-06T12:38:45.640Z,94120.03
2022-11-06T12:41:31.045Z,94116.97
2022-11-06T12:43:58.396Z,94116.19
2022-11-06T12:46:30.813Z,94105.81
2022-11-06T12:49:03.532Z,94099.41
2022-11-06T12:52:09.984Z,94093.69
2022-11-06T12:54:45.596Z,94090.06
2022-11-06T12:57:30.573Z,94078.97
2022-11-06T13:00:27.152Z,94066.03
2022-11-06T13:03:15.304Z,94066.50
2022-11-06T13:06:00.415Z,94062.56
2022-11-06T13:09:05.004Z,94058.16
2022-11-06T13:11:34.355Z,94051.31
2022-11-06T13:14:06.505Z,94051.44
2022-11-06T13:16:44.275Z,94057.88
2022-11-06T13:19:23.097Z,94049.22
2022-11-06T13:21:52.893Z,94051.38
2022-11-06T13:24:49.476Z,94045.66
2022-11-06T13:27:33.691Z,94039.19
2022-11-06T13:30:30.543Z,94036.84
2022-11-06T13:33:07.969Z,94037.66
2022-11-06T13:35:37.307Z,94021.03
2022-11-06T13:38:06.851Z,94026.72
2022-11-06T13:40:40.734Z,94027.59
2022-11-06T13:43:10.303Z,94027.41
2022-11-06T13:45:46.395Z,94023.03
2022-11-06T13:48:24.474Z,94016.41
2022-11-06T13:50:59.168Z,94017.03
2022-11-06T13:53:34.857Z,94011.22
2022-11-06T13:56:24.855Z,94001.00
2022-11-06T13:59:05.036Z,93999.84
2022-11-06T14:01:37.907Z,93988.25
2022-11-06T14:04:19.719Z,93986.38
2022-11-06T14:06:47.076Z,93966.88
2022-11-06T14:09:22.295Z,93969.41
2022-11-06T14:11:54.840Z,93977.38
2022-11-06T14:14:21.525Z,93980.56
2022-11-06T14:17:17.420Z,93968.31
2022-11-06T14:19:50.957Z,93957.66
2022-11-06T14:22:33.055Z,93952.81
2022-11-06T14:25:02.255Z,93948.59
2022-11-06T14:27:29.403Z,93941.00
2022-11-06T14:30:01.894Z,93943.81
2022-11-06T14:32:31.654Z,93942.53
2022-11-06T14:35:30.182Z,93938.16
2022-11-06T14:38:46.525Z,93936.69
2022-11-06T14:41:34.896Z,93935.41
2022-11-06T14:44:07.423Z,93929.94
2022-11-06T14:46:34.145Z,93924.75
2022-11-06T14:49:27.014Z,93934.69
2022-11-06T14:52:12.855Z,93920.13
2022-11-06T14:54:43.796Z,93915.34
2022-11-06T14:57:15.555Z,93913.22
2022-11-06T14:59:42.602Z,93906.75
2022-11-06T15:02:10.567Z,93916.91
2022-11-06T15:04:44.889Z,93910.00
2022-11-06T15:08:03.407Z,93912.19
2022-11-06T15:10:43.855Z,93910.75
2022-11-06T15:13:16.374Z,93910.91
2022-11-06T15:15:44.733Z,93921.22
2022-11-06T15:18:13.921Z,93918.44
2022-11-06T15:20:41.225Z,93916.41
2022-11-06T15:23:13.467Z,93917.38
2022-11-06T15:25:48.097Z,93920.09
2022-11-06T15:28:27.326Z,93922.19
2022-11-06T15:31:18.114Z,93914.31
2022-11-06T15:34:01.643Z,93910.72
2022-11-06T15:36:29.605Z,93907.19
2022-11-06T15:38:56.344Z,93900.09
2022-11-06T15:41:26.878Z,93902.50
2022-11-06T15:43:55.219Z,93904.09
2022-11-06T15:46:27.583Z,93906.94
2022-11-06T15:49:20.205Z,93905.78
2022-11-06T15:52:06.013Z,93910.81
2022-11-06T15:54:40.299Z,93906.25
2022-11-06T15:57:28.689Z,93912.22
2022-11-06T16:00:18.498Z,93914.06
2022-11-06T16:02:49.106Z,93915.25
2022-11-06T16:05:20.041Z,93908.91
2022-11-06T16:07:47.634Z,93914.13
2022-11-06T16:10:24.039Z,93913.94
2022-11-06T16:12:51.459Z,93906.16
2022-11-06T16:15:49.302Z,93915.53
2022-11-06T16:18:19.564Z,93916.75
2022-11-06T16:20:50.076Z,93918.91
2022-11-06T16:23:24.294Z,93925.84
2022-11-06T16:26:02.493Z,93922.28
2022-11-06T16:28:31.304Z,93920.91
2022-11-06T16:31:10.632Z,93926.25
2022-11-06T16:33:37.343Z,93927.22
2022-11-06T16:36:13.947Z,93942.06
2022-11-06T16:38:44.071Z,93941.59
2022-11-06T16:41:39.675Z,93922.16
2022-11-06T16:44:30.890Z,93947.16
2022-11-06T16:47:10.314Z,93950.66
2022-11-06T16:49:38.805Z,93943.72
2022-11-06T16:52:39.545Z,93945.56
2022-11-06T16:55:28.520Z,93953.47
2022-11-06T16:57:58.237Z,93954.97
2022-11-06T17:00:31.171Z,93952.25
2022-11-06T17:03:07.390Z,93957.72
2022-11-06T17:05:37.068Z,93952.50
2022-11-06T17:08:19.183Z,93953.28
2022-11-06T17:10:47.127Z,93956.16
2022-11-06T17:13:21.813Z,93953.41
2022-11-06T17:15:59.030Z,93958.13
2022-11-06T17:18:35.552Z,93965.00
2022-11-06T17:21:07.531Z,93953.78
2022-11-06T17:23:34.345Z,93960.03
2022-11-06T17:26:07.077Z,93956.06
2022-11-06T17:28:33.703Z,93953.28
2022-11-06T17:31:00.925Z,93952.28
2022-11-06T17:33:27.533Z,93956.00
2022-11-06T17:35:54.362Z,93957.59
2022-11-06T17:38:21.065Z,93958.94
2022-11-06T17:40:47.840Z,93961.38
2022-11-06T17:43:14.970Z,93952.00
2022-11-06T17:45:44.490Z,93958.22
2022-11-06T17:48:11.309Z,93951.88
2022-11-06T17:50:58.286Z,93960.19
2022-11-06T17:53:26.623Z,93962.78
2022-11-06T17:55:53.386Z,93977.03
2022-11-06T17:58:20.986Z,93966.63
2022-11-06T18:00:50.374Z,93974.28
2022-11-06T18:03:22.390Z,93973.31
2022-11-06T18:05:49.288Z,93977.72
2022-11-06T18:08:16.340Z,93976.59
2022-11-06T18:10:43.514Z,93986.06
2022-11-06T18:13:10.245Z,93986.34
2022-11-06T18:15:36.995Z,93992.28
2022-11-06T18:18:04.204Z,93998.66
2022-11-06T18:20:30.971Z,93998.91
2022-11-06T18:22:57.695Z,93998.78
2022-11-06T18:25:24.444Z,94005.88
2022-11-06T18:27:51.144Z,94000.00
2022-11-06T18:30:17.920Z,93999.56
2022-11-06T18:32:44.697Z,94001.34
2022-11-06T18:35:11.651Z,94002.81
2022-11-06T18:37:38.461Z,94002.44
2022-11-06T18:40:05.512Z,93994.84
2022-11-06T18:42:32.124Z,93993.28
2022-11-06T18:44:58.789Z,93995.94
2022-11-06T18:47:25.419Z,93991.09
2022-11-06T18:49:52.010Z,93994.22
2022-11-06T18:52:38.073Z,93998.06
2022-11-06T18:55:06.024Z,94004.72
2022-11-06T18:57:32.714Z,94006.66
2022-11-06T18:59:59.433Z,94015.09
2022-11-06T19:02:26.313Z,94021.94
2022-11-06T19:04:53.743Z,94023.59
2022-11-06T19:07:20.573Z,94025.81
2022-11-06T19:09:47.479Z,94013.34
2022-11-06T19:12:14.257Z,93996.22
2022-11-06T19:14:41.157Z,94021.38
2022-11-06T19:17:07.911Z,94027.56
2022-11-06T19:19:34.589Z,94024.84
2022-11-06T19:22:01.337Z,94021.66
2022-11-06T19:24:28.035Z,94025.44
2022-11-06T19:26:55.979Z,94028.09
2022-11-06T19:29:23.005Z,94019.28
2022-11-06T19:31:51.561Z,94034.31
2022-11-06T19:34:25.084Z,94037.13
2022-11-06T19:36:55.335Z,94038.47
2022-11-06T19:39:22.649Z,94031.94
2022-11-06T19:41:53.310Z,94037.69
2022-11-06T19:44:21.295Z,94044.97
2022-11-06T19:46:48.216Z,94049.75
2022-11-06T19:49:17.176Z,94059.13
2022-11-06T19:51:43.927Z,94051.50
2022-11-06T19:54:11.300Z,94054.59
2022-11-06T19:57:27.073Z,94046.66
2022-11-06T19:59:24.979Z,94061.59
2022-11-06T20:01:53.253Z,94061.09
2022-11-06T20:04:20.468Z,94055.50
2022-11-06T20:06:47.922Z,94063.81
2022-11-06T20:09:14.555Z,94063.03
2022-11-06T20:11:41.241Z,94060.72
2022-11-06T20:14:08.208Z,94056.88
2022-11-06T20:16:34.930Z,94059.03
2022-11-06T20:19:02.151Z,94054.16
2022-11-06T20:21:29.934Z,94064.34
2022-11-06T20:23:57.797Z,94066.56
2022-11-06T20:26:25.830Z,94068.50
2022-11-06T20:28:52.495Z,94072.03
2022-11-06T20:31:20.161Z,94068.56
2022-11-06T20:33:47.748Z,94091.00
2022-11-06T20:36:17.769Z,94089.38
2022-11-06T20:38:45.121Z,94094.53
2022-11-06T20:41:15.377Z,94100.25
2022-11-06T20:43:43.231Z,94095.13
2022-11-06T20:46:11.482Z,94109.38
2022-11-06T20:48:38.385Z,94105.75
2022-11-06T20:51:08.236Z,94108.50
2022-11-06T20:53:35.843Z,94110.09
2022-11-06T20:56:05.823Z,94110.69
2022-11-06T20:58:32.564Z,94111.56
2022-11-06T21:01:19.875Z,94115.00
2022-11-06T21:03:48.310Z,94114.03
2022-11-06T21:06:15.884Z,94117.97
2022-11-06T21:08:43.191Z,94127.38
2022-11-06T21:11:14.384Z,94124.06
2022-11-06T21:13:41.490Z,94115.63
2022-11-06T21:16:29.649Z,94114.75
2022-11-06T21:18:56.830Z,94117.16
2022-11-06T21:21:25.606Z,94108.78
2022-11-06T21:23:52.953Z,94121.50
2022-11-06T21:26:22.541Z,94121.78
2022-11-06T21:28:49.928Z,94122.97
2022-11-06T21:31:19.976Z,94126.78
2022-11-06T21:33:48.563Z,94122.97
2022-11-06T21:36:18.333Z,94126.72
2022-11-06T21:38:46.415Z,94120.09
2022-11-06T21:41:15.881Z,94123.88
2022-11-06T21:43:42.926Z,94121.31
2022-11-06T21:46:11.728Z,94122.00
2022-11-06T21:48:47.784Z,94118.97
2022-11-06T21:51:17.807Z,94117.66
2022-11-06T21:54:03.051Z,94115.09
2022-11-06T21:56:29.613Z,94131.75
2022-11-06T21:58:58.822Z,94123.66
2022-11-06T22:01:26.953Z,94122.97
2022-11-06T22:03:53.763Z,94132.59
2022-11-06T22:06:22.386Z,94126.78
2022-11-06T22:08:49.967Z,94124.22
2022-11-06T22:11:37.487Z,94127.06
2022-11-06T22:14:07.203Z,94122.44
2022-11-06T22:16:36.411Z,94132.00
2022-11-06T22:19:04.307Z,94137.47
2022-11-06T22:21:31.027Z,94134.56
2022-11-06T22:23:57.695Z,94134.59
2022-11-06T22:26:26.348Z,94140.44
2022-11-06T22:28:58.710Z,94143.72
2022-11-06T22:31:25.384Z,94131.03
2022-11-06T22:33:54.059Z,94147.34
2022-11-06T22:36:21.456Z,94143.97
2022-11-06T22:38:48.356Z,94146.47
2022-11-06T22:41:17.487Z,94148.41
2022-11-06T22:43:44.781Z,94144.91
2022-11-06T22:46:16.438Z,94151.06
2022-11-06T22:48:43.423Z,94161.16
2022-11-06T22:51:12.899Z,94150.22
2022-11-06T22:53:40.168Z,94160.25
2022-11-06T22:56:07.022Z,94158.94
2022-11-06T22:58:33.862Z,94166.97
2022-11-06T23:01:00.772Z,94158.38
2022-11-06T23:03:29.205Z,94166.34
2022-11-06T23:05:58.207Z,94156.19
2022-11-06T23:08:26.372Z,94159.75
2022-11-06T23:10:54.306Z,94162.28
2022-11-06T23:13:21.216Z,94175.44
2022-11-06T23:15:47.985Z,94184.31
2022-11-06T23:18:14.995Z,94173.13
2022-11-06T23:20:41.593Z,94179.34
2022-11-06T23:23:08.204Z,94178.25
2022-11-06T23:25:34.968Z,94178.84
2022-11-06T23:28:02.329Z,94186.22
2022-11-06T23:30:30.141Z,94187.81
2022-11-06T23:32:57.078Z,94188.06
2022-11-06T23:35:26.893Z,94187.72
2022-11-06T23:37:57.568Z,94189.00
2022-11-06T23:40:24.159Z,94188.38
2022-11-06T23:42:51.686Z,94172.47
2022-11-06T23:45:36.853Z,94181.59
2022-11-06T23:48:08.425Z,94194.25
2022-11-06T23:50:35.236Z,94184.78
2022-11-06T23:53:01.823Z,94196.81
2022-11-06T23:55:28.393Z,94204.44
2022-11-06T23:57:54.987Z,94205.88
